sensor_id;sensor_type;location;lat;lon;timestamp;temperature;humidity
77467;DHT22;66564;42.482;25.548;2023-05-18T00:02:13;13.75;75.69
77467;DHT22;66564;42.482;25.548;2023-05-18T00:04:40;13.73;75.23
77467;DHT22;66564;42.482;25.548;2023-05-18T00:07:06;13.69;75.43
77467;DHT22;66564;42.482;25.548;2023-05-18T00:09:33;13.69;75.49
77467;DHT22;66564;42.482;25.548;2023-05-18T00:12:00;13.65;75.03
77467;DHT22;66564;42.482;25.548;2023-05-18T00:14:26;13.63;75.21
77467;DHT22;66564;42.482;25.548;2023-05-18T00:16:51;13.66;75.22
77467;DHT22;66564;42.482;25.548;2023-05-18T00:19:23;13.65;75.23
77467;DHT22;66564;42.482;25.548;2023-05-18T00:21:50;13.57;74.73
77467;DHT22;66564;42.482;25.548;2023-05-18T00:24:16;13.58;75.18
77467;DHT22;66564;42.482;25.548;2023-05-18T00:26:44;13.61;75.30
77467;DHT22;66564;42.482;25.548;2023-05-18T00:29:10;13.57;75.41
77467;DHT22;66564;42.482;25.548;2023-05-18T00:31:36;13.55;75.41
77467;DHT22;66564;42.482;25.548;2023-05-18T00:34:13;13.48;74.62
77467;DHT22;66564;42.482;25.548;2023-05-18T00:36:39;13.41;74.76
77467;DHT22;66564;42.482;25.548;2023-05-18T00:39:06;13.42;75.16
77467;DHT22;66564;42.482;25.548;2023-05-18T00:41:33;13.39;75.17
77467;DHT22;66564;42.482;25.548;2023-05-18T00:43:59;13.34;75.23
77467;DHT22;66564;42.482;25.548;2023-05-18T00:46:27;13.29;74.99
77467;DHT22;66564;42.482;25.548;2023-05-18T00:48:54;13.24;75.02
77467;DHT22;66564;42.482;25.548;2023-05-18T00:51:22;13.24;74.69
77467;DHT22;66564;42.482;25.548;2023-05-18T00:53:52;13.24;74.59
77467;DHT22;66564;42.482;25.548;2023-05-18T00:56:19;13.22;75.03
77467;DHT22;66564;42.482;25.548;2023-05-18T00:58:49;13.24;74.92
77467;DHT22;66564;42.482;25.548;2023-05-18T01:01:17;13.19;75.63
77467;DHT22;66564;42.482;25.548;2023-05-18T01:03:43;13.19;75.58
77467;DHT22;66564;42.482;25.548;2023-05-18T01:06:09;13.24;75.48
77467;DHT22;66564;42.482;25.548;2023-05-18T01:08:37;13.28;75.45
77467;DHT22;66564;42.482;25.548;2023-05-18T01:13:48;13.28;75.36
77467;DHT22;66564;42.482;25.548;2023-05-18T01:16:25;13.21;75.16
77467;DHT22;66564;42.482;25.548;2023-05-18T01:18:59;13.19;75.18
77467;DHT22;66564;42.482;25.548;2023-05-18T01:24:34;13.18;74.65
77467;DHT22;66564;42.482;25.548;2023-05-18T01:26:59;13.17;74.49
77467;DHT22;66564;42.482;25.548;2023-05-18T01:29:27;13.14;74.72
77467;DHT22;66564;42.482;25.548;2023-05-18T01:31:53;13.12;74.45
77467;DHT22;66564;42.482;25.548;2023-05-18T01:34:18;13.14;74.83
77467;DHT22;66564;42.482;25.548;2023-05-18T01:36:44;13.12;74.94
77467;DHT22;66564;42.482;25.548;2023-05-18T01:39:10;13.08;75.20
77467;DHT22;66564;42.482;25.548;2023-05-18T01:41:40;13.07;75.48
77467;DHT22;66564;42.482;25.548;2023-05-18T01:44:13;13.08;75.67
77467;DHT22;66564;42.482;25.548;2023-05-18T01:46:54;13.04;74.80
77467;DHT22;66564;42.482;25.548;2023-05-18T01:52:08;12.97;75.09
77467;DHT22;66564;42.482;25.548;2023-05-18T01:54:37;13.00;75.30
77467;DHT22;66564;42.482;25.548;2023-05-18T01:57:05;13.00;75.36
77467;DHT22;66564;42.482;25.548;2023-05-18T01:59:31;12.96;76.11
77467;DHT22;66564;42.482;25.548;2023-05-18T02:02:00;12.96;76.78
77467;DHT22;66564;42.482;25.548;2023-05-18T02:04:27;12.96;77.03
77467;DHT22;66564;42.482;25.548;2023-05-18T02:06:53;12.93;76.55
77467;DHT22;66564;42.482;25.548;2023-05-18T02:09:20;12.98;76.13
77467;DHT22;66564;42.482;25.548;2023-05-18T02:11:46;13.03;75.58
77467;DHT22;66564;42.482;25.548;2023-05-18T02:14:12;13.06;75.45
77467;DHT22;66564;42.482;25.548;2023-05-18T02:16:38;13.00;75.68
77467;DHT22;66564;42.482;25.548;2023-05-18T02:19:03;12.94;76.71
77467;DHT22;66564;42.482;25.548;2023-05-18T02:21:29;12.93;77.38
77467;DHT22;66564;42.482;25.548;2023-05-18T02:23:54;13.01;76.71
77467;DHT22;66564;42.482;25.548;2023-05-18T02:26:20;13.00;76.26
77467;DHT22;66564;42.482;25.548;2023-05-18T02:28:46;12.98;76.34
77467;DHT22;66564;42.482;25.548;2023-05-18T02:31:12;13.06;76.23
77467;DHT22;66564;42.482;25.548;2023-05-18T02:33:38;13.06;76.42
77467;DHT22;66564;42.482;25.548;2023-05-18T02:36:06;13.10;76.51
77467;DHT22;66564;42.482;25.548;2023-05-18T02:38:35;13.08;75.99
77467;DHT22;66564;42.482;25.548;2023-05-18T02:41:00;13.03;75.81
77467;DHT22;66564;42.482;25.548;2023-05-18T02:43:26;12.97;75.73
77467;DHT22;66564;42.482;25.548;2023-05-18T02:45:51;12.97;75.98
77467;DHT22;66564;42.482;25.548;2023-05-18T02:48:17;12.96;76.51
77467;DHT22;66564;42.482;25.548;2023-05-18T02:50:42;12.91;77.01
77467;DHT22;66564;42.482;25.548;2023-05-18T02:53:10;12.91;77.53
77467;DHT22;66564;42.482;25.548;2023-05-18T02:55:35;12.83;77.54
77467;DHT22;66564;42.482;25.548;2023-05-18T02:58:02;12.80;77.80
77467;DHT22;66564;42.482;25.548;2023-05-18T03:00:28;12.91;77.58
77467;DHT22;66564;42.482;25.548;2023-05-18T03:02:55;12.87;77.13
77467;DHT22;66564;42.482;25.548;2023-05-18T03:05:22;12.83;76.97
77467;DHT22;66564;42.482;25.548;2023-05-18T03:07:49;12.90;77.02
77467;DHT22;66564;42.482;25.548;2023-05-18T03:10:17;12.93;76.66
77467;DHT22;66564;42.482;25.548;2023-05-18T03:12:42;13.00;76.88
77467;DHT22;66564;42.482;25.548;2023-05-18T03:15:08;12.96;76.36
77467;DHT22;66564;42.482;25.548;2023-05-18T03:17:36;13.04;76.77
77467;DHT22;66564;42.482;25.548;2023-05-18T03:20:02;13.08;76.25
77467;DHT22;66564;42.482;25.548;2023-05-18T03:22:29;13.11;76.39
77467;DHT22;66564;42.482;25.548;2023-05-18T03:24:54;13.10;76.22
77467;DHT22;66564;42.482;25.548;2023-05-18T03:27:21;13.06;76.03
77467;DHT22;66564;42.482;25.548;2023-05-18T03:29:50;13.03;76.44
77467;DHT22;66564;42.482;25.548;2023-05-18T03:32:20;13.04;75.95
77467;DHT22;66564;42.482;25.548;2023-05-18T03:34:46;13.03;76.30
77467;DHT22;66564;42.482;25.548;2023-05-18T03:37:15;13.04;76.50
77467;DHT22;66564;42.482;25.548;2023-05-18T03:39:41;13.04;76.17
77467;DHT22;66564;42.482;25.548;2023-05-18T03:42:07;13.12;76.67
77467;DHT22;66564;42.482;25.548;2023-05-18T03:44:32;13.12;76.74
77467;DHT22;66564;42.482;25.548;2023-05-18T03:46:58;13.11;76.95
77467;DHT22;66564;42.482;25.548;2023-05-18T03:49:23;13.12;76.91
77467;DHT22;66564;42.482;25.548;2023-05-18T03:51:49;13.18;77.01
77467;DHT22;66564;42.482;25.548;2023-05-18T03:54:14;13.18;77.07
77467;DHT22;66564;42.482;25.548;2023-05-18T03:56:40;13.19;76.66
77467;DHT22;66564;42.482;25.548;2023-05-18T03:59:06;13.21;76.32
77467;DHT22;66564;42.482;25.548;2023-05-18T04:01:32;13.24;76.56
77467;DHT22;66564;42.482;25.548;2023-05-18T04:03:59;13.31;77.00
77467;DHT22;66564;42.482;25.548;2023-05-18T04:06:24;13.29;76.37
77467;DHT22;66564;42.482;25.548;2023-05-18T04:08:51;13.29;76.64
77467;DHT22;66564;42.482;25.548;2023-05-18T04:11:17;13.31;76.69
77467;DHT22;66564;42.482;25.548;2023-05-18T04:13:43;13.31;77.38
77467;DHT22;66564;42.482;25.548;2023-05-18T04:16:08;13.37;77.53
77467;DHT22;66564;42.482;25.548;2023-05-18T04:18:38;13.38;77.14
77467;DHT22;66564;42.482;25.548;2023-05-18T04:21:04;13.38;77.17
77467;DHT22;66564;42.482;25.548;2023-05-18T04:23:31;13.41;77.35
77467;DHT22;66564;42.482;25.548;2023-05-18T04:25:58;13.44;77.69
77467;DHT22;66564;42.482;25.548;2023-05-18T04:28:24;13.45;77.65
77467;DHT22;66564;42.482;25.548;2023-05-18T04:30:50;13.45;77.74
77467;DHT22;66564;42.482;25.548;2023-05-18T04:33:16;13.47;77.60
77467;DHT22;66564;42.482;25.548;2023-05-18T04:35:42;13.42;78.00
77467;DHT22;66564;42.482;25.548;2023-05-18T04:38:07;13.45;78.54
77467;DHT22;66564;42.482;25.548;2023-05-18T04:40:34;13.51;78.97
77467;DHT22;66564;42.482;25.548;2023-05-18T04:43:02;13.52;78.78
77467;DHT22;66564;42.482;25.548;2023-05-18T04:45:28;13.54;78.41
77467;DHT22;66564;42.482;25.548;2023-05-18T04:47:54;13.58;78.68
77467;DHT22;66564;42.482;25.548;2023-05-18T04:50:20;13.62;78.29
77467;DHT22;66564;42.482;25.548;2023-05-18T04:52:51;13.68;78.57
77467;DHT22;66564;42.482;25.548;2023-05-18T04:55:18;13.71;78.22
77467;DHT22;66564;42.482;25.548;2023-05-18T04:57:50;13.73;78.32
77467;DHT22;66564;42.482;25.548;2023-05-18T05:00:23;13.76;78.69
77467;DHT22;66564;42.482;25.548;2023-05-18T05:02:52;13.81;78.37
77467;DHT22;66564;42.482;25.548;2023-05-18T05:05:18;13.78;78.50
77467;DHT22;66564;42.482;25.548;2023-05-18T05:07:43;13.81;78.40
77467;DHT22;66564;42.482;25.548;2023-05-18T05:10:09;13.82;77.17
77467;DHT22;66564;42.482;25.548;2023-05-18T05:12:40;13.90;77.94
77467;DHT22;66564;42.482;25.548;2023-05-18T05:15:09;13.98;77.36
77467;DHT22;66564;42.482;25.548;2023-05-18T05:17:35;14.05;77.38
77467;DHT22;66564;42.482;25.548;2023-05-18T05:20:16;14.10;77.64
77467;DHT22;66564;42.482;25.548;2023-05-18T05:22:41;14.20;76.93
77467;DHT22;66564;42.482;25.548;2023-05-18T05:25:07;14.26;76.92
77467;DHT22;66564;42.482;25.548;2023-05-18T05:27:33;14.30;76.86
77467;DHT22;66564;42.482;25.548;2023-05-18T05:29:58;14.32;76.17
77467;DHT22;66564;42.482;25.548;2023-05-18T05:32:24;14.37;76.12
77467;DHT22;66564;42.482;25.548;2023-05-18T05:34:50;14.41;76.45
77467;DHT22;66564;42.482;25.548;2023-05-18T05:37:16;14.38;76.56
77467;DHT22;66564;42.482;25.548;2023-05-18T05:39:42;14.46;75.95
77467;DHT22;66564;42.482;25.548;2023-05-18T05:42:08;14.57;76.13
77467;DHT22;66564;42.482;25.548;2023-05-18T05:44:33;14.61;76.14
77467;DHT22;66564;42.482;25.548;2023-05-18T05:46:59;14.64;76.63
77467;DHT22;66564;42.482;25.548;2023-05-18T05:49:25;14.68;76.21
77467;DHT22;66564;42.482;25.548;2023-05-18T05:51:51;14.68;75.16
77467;DHT22;66564;42.482;25.548;2023-05-18T05:54:17;14.70;74.61
77467;DHT22;66564;42.482;25.548;2023-05-18T05:56:42;14.76;74.33
77467;DHT22;66564;42.482;25.548;2023-05-18T05:59:08;14.78;74.00
77467;DHT22;66564;42.482;25.548;2023-05-18T06:01:33;14.81;73.71
77467;DHT22;66564;42.482;25.548;2023-05-18T06:04:00;14.85;73.86
77467;DHT22;66564;42.482;25.548;2023-05-18T06:06:27;14.88;73.06
77467;DHT22;66564;42.482;25.548;2023-05-18T06:08:53;14.95;73.81
77467;DHT22;66564;42.482;25.548;2023-05-18T06:11:18;14.95;74.30
77467;DHT22;66564;42.482;25.548;2023-05-18T06:13:44;15.00;74.39
77467;DHT22;66564;42.482;25.548;2023-05-18T06:16:09;15.00;74.19
77467;DHT22;66564;42.482;25.548;2023-05-18T06:18:35;15.05;74.50
77467;DHT22;66564;42.482;25.548;2023-05-18T06:21:00;15.07;73.05
77467;DHT22;66564;42.482;25.548;2023-05-18T06:23:35;15.11;73.40
77467;DHT22;66564;42.482;25.548;2023-05-18T06:26:01;15.10;73.22
77467;DHT22;66564;42.482;25.548;2023-05-18T06:28:27;15.05;72.70
77467;DHT22;66564;42.482;25.548;2023-05-18T06:30:52;15.14;72.78
77467;DHT22;66564;42.482;25.548;2023-05-18T06:33:18;15.17;73.12
77467;DHT22;66564;42.482;25.548;2023-05-18T06:35:45;15.20;72.65
77467;DHT22;66564;42.482;25.548;2023-05-18T06:38:11;15.22;72.96
77467;DHT22;66564;42.482;25.548;2023-05-18T06:40:36;15.25;72.79
77467;DHT22;66564;42.482;25.548;2023-05-18T06:43:01;15.28;71.49
77467;DHT22;66564;42.482;25.548;2023-05-18T06:45:27;15.28;71.89
77467;DHT22;66564;42.482;25.548;2023-05-18T06:47:52;15.31;71.38
77467;DHT22;66564;42.482;25.548;2023-05-18T06:50:18;15.34;70.50
77467;DHT22;66564;42.482;25.548;2023-05-18T06:52:44;15.34;70.77
77467;DHT22;66564;42.482;25.548;2023-05-18T06:55:09;15.36;69.88
77467;DHT22;66564;42.482;25.548;2023-05-18T06:57:35;15.38;69.73
77467;DHT22;66564;42.482;25.548;2023-05-18T07:00:00;15.38;70.65
77467;DHT22;66564;42.482;25.548;2023-05-18T07:02:26;15.42;70.44
77467;DHT22;66564;42.482;25.548;2023-05-18T07:04:52;15.46;70.18
77467;DHT22;66564;42.482;25.548;2023-05-18T07:07:18;15.48;68.36
77467;DHT22;66564;42.482;25.548;2023-05-18T07:09:44;15.48;68.47
77467;DHT22;66564;42.482;25.548;2023-05-18T07:12:12;15.54;68.64
77467;DHT22;66564;42.482;25.548;2023-05-18T07:14:38;15.59;69.00
77467;DHT22;66564;42.482;25.548;2023-05-18T07:17:04;15.67;69.27
77467;DHT22;66564;42.482;25.548;2023-05-18T07:19:31;15.75;68.40
77467;DHT22;66564;42.482;25.548;2023-05-18T07:21:57;15.81;68.09
77467;DHT22;66564;42.482;25.548;2023-05-18T07:24:24;15.87;68.67
77467;DHT22;66564;42.482;25.548;2023-05-18T07:26:50;15.95;68.84
77467;DHT22;66564;42.482;25.548;2023-05-18T07:29:15;16.00;68.41
77467;DHT22;66564;42.482;25.548;2023-05-18T07:31:41;16.05;67.01
77467;DHT22;66564;42.482;25.548;2023-05-18T07:34:06;16.14;67.38
77467;DHT22;66564;42.482;25.548;2023-05-18T07:36:33;16.20;68.38
77467;DHT22;66564;42.482;25.548;2023-05-18T07:38:59;16.24;67.46
77467;DHT22;66564;42.482;25.548;2023-05-18T07:41:25;16.26;66.64
77467;DHT22;66564;42.482;25.548;2023-05-18T07:43:52;16.26;66.98
77467;DHT22;66564;42.482;25.548;2023-05-18T07:46:17;16.30;67.20
77467;DHT22;66564;42.482;25.548;2023-05-18T07:48:43;16.29;66.89
77467;DHT22;66564;42.482;25.548;2023-05-18T07:51:11;16.26;67.10
77467;DHT22;66564;42.482;25.548;2023-05-18T07:53:37;16.16;66.25
77467;DHT22;66564;42.482;25.548;2023-05-18T07:56:05;16.20;67.57
77467;DHT22;66564;42.482;25.548;2023-05-18T07:58:33;16.26;68.18
77467;DHT22;66564;42.482;25.548;2023-05-18T08:00:58;16.24;67.43
77467;DHT22;66564;42.482;25.548;2023-05-18T08:03:24;16.24;67.03
77467;DHT22;66564;42.482;25.548;2023-05-18T08:05:49;16.26;67.50
77467;DHT22;66564;42.482;25.548;2023-05-18T08:08:15;16.29;67.98
77467;DHT22;66564;42.482;25.548;2023-05-18T08:10:40;16.29;67.01
77467;DHT22;66564;42.482;25.548;2023-05-18T08:13:06;16.30;67.37
77467;DHT22;66564;42.482;25.548;2023-05-18T08:15:33;16.31;66.69
77467;DHT22;66564;42.482;25.548;2023-05-18T08:17:59;16.27;66.52
77467;DHT22;66564;42.482;25.548;2023-05-18T08:20:27;16.30;66.62
77467;DHT22;66564;42.482;25.548;2023-05-18T08:22:56;16.34;67.26
77467;DHT22;66564;42.482;25.548;2023-05-18T08:25:22;16.39;67.23
77467;DHT22;66564;42.482;25.548;2023-05-18T08:27:48;16.36;65.36
77467;DHT22;66564;42.482;25.548;2023-05-18T08:30:13;16.39;66.29
77467;DHT22;66564;42.482;25.548;2023-05-18T08:32:39;16.43;66.70
77467;DHT22;66564;42.482;25.548;2023-05-18T08:35:05;16.46;66.57
77467;DHT22;66564;42.482;25.548;2023-05-18T08:37:33;16.50;66.97
77467;DHT22;66564;42.482;25.548;2023-05-18T08:39:58;16.63;68.01
77467;DHT22;66564;42.482;25.548;2023-05-18T08:42:28;16.67;66.87
77467;DHT22;66564;42.482;25.548;2023-05-18T08:47:27;16.78;66.51
77467;DHT22;66564;42.482;25.548;2023-05-18T08:49:55;16.87;66.95
77467;DHT22;66564;42.482;25.548;2023-05-18T08:52:24;16.88;66.34
77467;DHT22;66564;42.482;25.548;2023-05-18T08:54:53;17.00;67.95
77467;DHT22;66564;42.482;25.548;2023-05-18T08:57:21;17.07;65.08
77467;DHT22;66564;42.482;25.548;2023-05-18T08:59:48;17.14;63.99
77467;DHT22;66564;42.482;25.548;2023-05-18T09:02:16;17.15;63.49
77467;DHT22;66564;42.482;25.548;2023-05-18T09:04:42;17.19;63.11
77467;DHT22;66564;42.482;25.548;2023-05-18T09:07:09;17.18;62.32
77467;DHT22;66564;42.482;25.548;2023-05-18T09:09:35;17.16;63.37
77467;DHT22;66564;42.482;25.548;2023-05-18T09:12:01;17.25;64.85
77467;DHT22;66564;42.482;25.548;2023-05-18T09:14:28;17.28;63.31
77467;DHT22;66564;42.482;25.548;2023-05-18T09:16:55;17.32;63.23
77467;DHT22;66564;42.482;25.548;2023-05-18T09:19:20;17.34;62.40
77467;DHT22;66564;42.482;25.548;2023-05-18T09:21:46;17.35;62.52
77467;DHT22;66564;42.482;25.548;2023-05-18T09:24:12;17.34;62.97
77467;DHT22;66564;42.482;25.548;2023-05-18T09:26:38;17.31;63.81
77467;DHT22;66564;42.482;25.548;2023-05-18T09:29:15;17.29;63.82
77467;DHT22;66564;42.482;25.548;2023-05-18T09:31:41;17.28;64.40
77467;DHT22;66564;42.482;25.548;2023-05-18T09:34:06;17.25;65.31
77467;DHT22;66564;42.482;25.548;2023-05-18T09:36:32;17.31;64.38
77467;DHT22;66564;42.482;25.548;2023-05-18T09:38:58;17.26;64.46
77467;DHT22;66564;42.482;25.548;2023-05-18T09:41:25;17.28;65.27
77467;DHT22;66564;42.482;25.548;2023-05-18T09:43:51;17.21;63.81
77467;DHT22;66564;42.482;25.548;2023-05-18T09:46:17;17.19;64.76
77467;DHT22;66564;42.482;25.548;2023-05-18T09:48:49;17.14;64.77
77467;DHT22;66564;42.482;25.548;2023-05-18T09:51:14;17.08;64.34
77467;DHT22;66564;42.482;25.548;2023-05-18T09:53:55;17.05;64.97
77467;DHT22;66564;42.482;25.548;2023-05-18T09:56:22;16.88;64.65
77467;DHT22;66564;42.482;25.548;2023-05-18T09:58:48;16.84;65.97
77467;DHT22;66564;42.482;25.548;2023-05-18T10:01:14;16.84;66.09
77467;DHT22;66564;42.482;25.548;2023-05-18T10:03:39;16.81;65.67
77467;DHT22;66564;42.482;25.548;2023-05-18T10:06:09;16.78;65.58
77467;DHT22;66564;42.482;25.548;2023-05-18T10:08:37;16.74;66.00
77467;DHT22;66564;42.482;25.548;2023-05-18T10:11:04;16.75;65.39
77467;DHT22;66564;42.482;25.548;2023-05-18T10:13:31;16.72;66.25
77467;DHT22;66564;42.482;25.548;2023-05-18T10:15:58;16.80;66.91
77467;DHT22;66564;42.482;25.548;2023-05-18T10:18:26;16.82;66.90
77467;DHT22;66564;42.482;25.548;2023-05-18T10:20:54;16.89;66.04
77467;DHT22;66564;42.482;25.548;2023-05-18T10:23:21;16.95;65.62
77467;DHT22;66564;42.482;25.548;2023-05-18T10:25:48;16.98;66.46
77467;DHT22;66564;42.482;25.548;2023-05-18T10:28:20;17.01;66.30
77467;DHT22;66564;42.482;25.548;2023-05-18T10:30:51;17.05;65.64
77467;DHT22;66564;42.482;25.548;2023-05-18T10:33:19;17.05;65.29
77467;DHT22;66564;42.482;25.548;2023-05-18T10:35:47;17.04;64.80
77467;DHT22;66564;42.482;25.548;2023-05-18T10:38:18;17.01;65.22
77467;DHT22;66564;42.482;25.548;2023-05-18T10:40:46;16.89;64.82
77467;DHT22;66564;42.482;25.548;2023-05-18T10:43:12;16.94;64.19
77467;DHT22;66564;42.482;25.548;2023-05-18T10:45:40;16.96;63.91
77467;DHT22;66564;42.482;25.548;2023-05-18T10:48:08;16.95;64.84
77467;DHT22;66564;42.482;25.548;2023-05-18T10:50:37;16.98;63.56
77467;DHT22;66564;42.482;25.548;2023-05-18T10:53:04;16.95;62.88
77467;DHT22;66564;42.482;25.548;2023-05-18T10:55:30;16.91;63.06
77467;DHT22;66564;42.482;25.548;2023-05-18T10:58:03;16.88;63.63
77467;DHT22;66564;42.482;25.548;2023-05-18T11:00:33;16.91;64.14
77467;DHT22;66564;42.482;25.548;2023-05-18T11:03:00;16.96;63.87
77467;DHT22;66564;42.482;25.548;2023-05-18T11:05:26;16.95;63.77
77467;DHT22;66564;42.482;25.548;2023-05-18T11:08:02;16.98;64.49
77467;DHT22;66564;42.482;25.548;2023-05-18T11:13:06;16.98;64.22
77467;DHT22;66564;42.482;25.548;2023-05-18T11:18:17;17.08;66.05
77467;DHT22;66564;42.482;25.548;2023-05-18T11:20:44;17.11;66.46
77467;DHT22;66564;42.482;25.548;2023-05-18T11:23:10;17.11;65.37
77467;DHT22;66564;42.482;25.548;2023-05-18T11:25:39;17.15;65.74
77467;DHT22;66564;42.482;25.548;2023-05-18T11:28:08;17.18;65.09
77467;DHT22;66564;42.482;25.548;2023-05-18T11:33:28;17.16;63.32
77467;DHT22;66564;42.482;25.548;2023-05-18T11:36:10;17.16;63.38
77467;DHT22;66564;42.482;25.548;2023-05-18T11:38:53;17.12;63.39
77467;DHT22;66564;42.482;25.548;2023-05-18T11:41:28;17.07;62.16
77467;DHT22;66564;42.482;25.548;2023-05-18T11:46:34;16.87;63.87
77467;DHT22;66564;42.482;25.548;2023-05-18T11:49:06;16.88;61.92
77467;DHT22;66564;42.482;25.548;2023-05-18T11:51:32;16.82;62.32
77467;DHT22;66564;42.482;25.548;2023-05-18T11:53:58;16.87;62.59
77467;DHT22;66564;42.482;25.548;2023-05-18T11:56:25;16.80;63.27
77467;DHT22;66564;42.482;25.548;2023-05-18T11:59:10;16.81;63.66
77467;DHT22;66564;42.482;25.548;2023-05-18T12:01:37;16.81;63.36
77467;DHT22;66564;42.482;25.548;2023-05-18T12:04:03;16.78;63.66
77467;DHT22;66564;42.482;25.548;2023-05-18T12:06:29;16.77;63.64
77467;DHT22;66564;42.482;25.548;2023-05-18T12:08:55;16.68;64.87
77467;DHT22;66564;42.482;25.548;2023-05-18T12:11:20;16.70;64.44
77467;DHT22;66564;42.482;25.548;2023-05-18T12:13:47;16.63;64.16
77467;DHT22;66564;42.482;25.548;2023-05-18T12:16:16;16.63;64.96
77467;DHT22;66564;42.482;25.548;2023-05-18T12:18:47;16.61;64.79
77467;DHT22;66564;42.482;25.548;2023-05-18T12:21:13;16.57;64.54
77467;DHT22;66564;42.482;25.548;2023-05-18T12:23:41;16.59;64.41
77467;DHT22;66564;42.482;25.548;2023-05-18T12:26:07;16.54;64.50
77467;DHT22;66564;42.482;25.548;2023-05-18T12:28:32;16.53;64.79
77467;DHT22;66564;42.482;25.548;2023-05-18T12:30:58;16.49;65.20
77467;DHT22;66564;42.482;25.548;2023-05-18T12:33:24;16.43;64.97
77467;DHT22;66564;42.482;25.548;2023-05-18T12:35:49;16.41;65.78
77467;DHT22;66564;42.482;25.548;2023-05-18T12:38:16;16.39;65.20
77467;DHT22;66564;42.482;25.548;2023-05-18T12:40:42;16.33;65.60
77467;DHT22;66564;42.482;25.548;2023-05-18T12:43:12;16.33;65.82
77467;DHT22;66564;42.482;25.548;2023-05-18T12:45:38;16.36;65.11
77467;DHT22;66564;42.482;25.548;2023-05-18T12:48:06;16.31;65.60
77467;DHT22;66564;42.482;25.548;2023-05-18T12:50:32;16.34;65.95
77467;DHT22;66564;42.482;25.548;2023-05-18T12:52:59;16.31;66.07
77467;DHT22;66564;42.482;25.548;2023-05-18T12:55:26;16.31;66.18
77467;DHT22;66564;42.482;25.548;2023-05-18T12:58:09;16.31;66.25
77467;DHT22;66564;42.482;25.548;2023-05-18T13:00:42;16.31;65.33
77467;DHT22;66564;42.482;25.548;2023-05-18T13:03:10;16.27;65.04
77467;DHT22;66564;42.482;25.548;2023-05-18T13:05:36;16.27;65.17
77467;DHT22;66564;42.482;25.548;2023-05-18T13:08:02;16.27;64.63
77467;DHT22;66564;42.482;25.548;2023-05-18T13:10:29;16.23;64.62
77467;DHT22;66564;42.482;25.548;2023-05-18T13:12:56;16.24;65.35
77467;DHT22;66564;42.482;25.548;2023-05-18T13:15:38;16.26;65.05
77467;DHT22;66564;42.482;25.548;2023-05-18T13:18:07;16.26;65.76
77467;DHT22;66564;42.482;25.548;2023-05-18T13:20:43;16.24;65.79
77467;DHT22;66564;42.482;25.548;2023-05-18T13:23:12;16.24;65.90
77467;DHT22;66564;42.482;25.548;2023-05-18T13:25:38;16.26;66.55
77467;DHT22;66564;42.482;25.548;2023-05-18T13:28:05;16.26;67.19
77467;DHT22;66564;42.482;25.548;2023-05-18T13:30:31;16.24;66.35
77467;DHT22;66564;42.482;25.548;2023-05-18T13:32:58;16.23;66.34
77467;DHT22;66564;42.482;25.548;2023-05-18T13:35:23;16.24;66.47
77467;DHT22;66564;42.482;25.548;2023-05-18T13:37:49;16.26;66.67
77467;DHT22;66564;42.482;25.548;2023-05-18T13:40:16;16.23;66.37
77467;DHT22;66564;42.482;25.548;2023-05-18T13:42:42;16.19;66.44
77467;DHT22;66564;42.482;25.548;2023-05-18T13:45:09;16.24;66.46
77467;DHT22;66564;42.482;25.548;2023-05-18T13:47:35;16.23;66.81
77467;DHT22;66564;42.482;25.548;2023-05-18T13:50:01;16.24;67.32
77467;DHT22;66564;42.482;25.548;2023-05-18T13:52:27;16.23;67.27
77467;DHT22;66564;42.482;25.548;2023-05-18T13:54:53;16.26;67.05
77467;DHT22;66564;42.482;25.548;2023-05-18T13:57:18;16.27;66.89
77467;DHT22;66564;42.482;25.548;2023-05-18T14:00:00;16.27;66.78
77467;DHT22;66564;42.482;25.548;2023-05-18T14:02:40;16.24;66.48
77467;DHT22;66564;42.482;25.548;2023-05-18T14:05:06;16.21;66.39
77467;DHT22;66564;42.482;25.548;2023-05-18T14:07:39;16.20;65.69
77467;DHT22;66564;42.482;25.548;2023-05-18T14:10:06;16.17;65.81
77467;DHT22;66564;42.482;25.548;2023-05-18T14:12:32;16.14;65.96
77467;DHT22;66564;42.482;25.548;2023-05-18T14:14:58;16.12;66.42
77467;DHT22;66564;42.482;25.548;2023-05-18T14:17:24;16.09;66.77
77467;DHT22;66564;42.482;25.548;2023-05-18T14:19:51;16.06;67.52
77467;DHT22;66564;42.482;25.548;2023-05-18T14:22:18;16.06;68.46
77467;DHT22;66564;42.482;25.548;2023-05-18T14:24:46;15.96;69.11
77467;DHT22;66564;42.482;25.548;2023-05-18T14:27:12;15.97;70.08
77467;DHT22;66564;42.482;25.548;2023-05-18T14:32:57;16.02;69.84
77467;DHT22;66564;42.482;25.548;2023-05-18T14:35:29;16.00;70.33
77467;DHT22;66564;42.482;25.548;2023-05-18T14:38:16;16.02;70.85
77467;DHT22;66564;42.482;25.548;2023-05-18T14:40:54;16.03;70.76
77467;DHT22;66564;42.482;25.548;2023-05-18T14:43:20;16.09;71.08
77467;DHT22;66564;42.482;25.548;2023-05-18T14:45:45;16.12;70.48
77467;DHT22;66564;42.482;25.548;2023-05-18T14:48:11;16.09;69.74
77467;DHT22;66564;42.482;25.548;2023-05-18T14:50:43;16.06;70.07
77467;DHT22;66564;42.482;25.548;2023-05-18T14:53:12;16.06;70.65
77467;DHT22;66564;42.482;25.548;2023-05-18T14:55:46;16.03;70.83
77467;DHT22;66564;42.482;25.548;2023-05-18T14:58:24;16.03;70.04
77467;DHT22;66564;42.482;25.548;2023-05-18T15:00:50;16.06;69.46
77467;DHT22;66564;42.482;25.548;2023-05-18T15:03:25;16.03;69.61
77467;DHT22;66564;42.482;25.548;2023-05-18T15:05:51;16.03;70.09
77467;DHT22;66564;42.482;25.548;2023-05-18T15:08:20;16.00;70.15
77467;DHT22;66564;42.482;25.548;2023-05-18T15:10:55;15.96;70.11
77467;DHT22;66564;42.482;25.548;2023-05-18T15:13:29;15.97;70.72
77467;DHT22;66564;42.482;25.548;2023-05-18T15:15:59;15.93;69.59
77467;DHT22;66564;42.482;25.548;2023-05-18T15:18:30;15.89;69.30
77467;DHT22;66564;42.482;25.548;2023-05-18T15:20:59;15.86;69.07
77467;DHT22;66564;42.482;25.548;2023-05-18T15:23:27;15.86;69.05
77467;DHT22;66564;42.482;25.548;2023-05-18T15:25:53;15.79;69.26
77467;DHT22;66564;42.482;25.548;2023-05-18T15:28:21;15.76;69.05
77467;DHT22;66564;42.482;25.548;2023-05-18T15:30:47;15.72;69.08
77467;DHT22;66564;42.482;25.548;2023-05-18T15:33:19;15.69;68.12
77467;DHT22;66564;42.482;25.548;2023-05-18T15:35:46;15.65;67.89
77467;DHT22;66564;42.482;25.548;2023-05-18T15:38:12;15.59;68.15
77467;DHT22;66564;42.482;25.548;2023-05-18T15:40:38;15.58;68.35
77467;DHT22;66564;42.482;25.548;2023-05-18T15:43:06;15.54;69.02